Time;durP1;ratioP1;P1;durP2;ratioP2;P2;SDS_P1;SDS_P2;PMS_P1;PMS_P2;Temp;Humidity;BMP_temperature;BMP_pressure;BME280_temperature;BME280_humidity;BME280_pressure;Samples;Min_cycle;Max_cycle;Signal;HPM_P1;HPM_P2
2023/01/25 00:02:25;;;;;;;17.65;10.23;;;1.90;99.90;;;;;;5016298;28;20053;-68
2023/01/25 00:04:51;;;;;;;19.45;10.38;;;2.10;99.90;;;;;;5015000;28;20048;-68
2023/01/25 00:07:17;;;;;;;19.60;10.93;;;1.70;99.90;;;;;;5016158;28;20053;-68
2023/01/25 00:09:43;;;;;;;18.60;10.98;;;2.90;99.90;;;;;;5015753;28;20042;-68
2023/01/25 00:12:08;;;;;;;17.90;10.68;;;1.80;99.90;;;;;;4998867;28;20136;-68
2023/01/25 00:14:34;;;;;;;17.77;10.50;;;2.20;99.90;;;;;;5014875;28;20056;-68
2023/01/25 00:17:00;;;;;;;18.73;10.35;;;1.80;99.90;;;;;;5014987;28;20058;-68
2023/01/25 00:19:25;;;;;;;18.83;10.65;;;2.00;99.90;;;;;;5014954;28;20445;-68
2023/01/25 00:21:51;;;;;;;17.45;9.70;;;1.90;99.90;;;;;;5015849;28;20058;-68
2023/01/25 00:24:17;;;;;;;21.20;12.35;;;1.70;99.90;;;;;;5014716;28;20049;-68
2023/01/25 00:26:43;;;;;;;19.63;9.70;;;1.70;99.90;;;;;;5015912;28;20116;-68
2023/01/25 00:29:12;;;;;;;19.13;10.73;;;1.80;99.90;;;;;;5015987;28;20391;-68
2023/01/25 00:31:56;;;;;;;17.35;10.45;;;1.60;99.90;;;;;;5016505;28;20104;-68
2023/01/25 00:34:22;;;;;;;20.48;10.30;;;1.90;99.90;;;;;;5015900;28;20510;-68
2023/01/25 00:36:50;;;;;;;17.55;9.95;;;1.50;99.90;;;;;;5014423;28;20050;-68
2023/01/25 00:39:15;;;;;;;17.20;10.60;;;1.50;99.90;;;;;;5015582;28;20038;-68
2023/01/25 00:41:42;;;;;;;20.35;10.85;;;1.60;99.90;;;;;;5016330;28;20491;-68
2023/01/25 00:44:08;;;;;;;19.08;10.88;;;2.30;99.90;;;;;;5014514;28;20049;-68
2023/01/25 00:46:33;;;;;;;18.55;10.32;;;2.20;99.90;;;;;;5015906;28;20046;-68
2023/01/25 00:48:59;;;;;;;21.33;11.73;;;2.60;99.90;;;;;;5015331;28;20042;-68
2023/01/25 00:51:25;;;;;;;20.35;11.40;;;1.60;99.90;;;;;;5015417;28;20085;-68
2023/01/25 00:53:51;;;;;;;19.38;10.68;;;2.00;99.90;;;;;;5014992;28;20056;-68
2023/01/25 00:56:17;;;;;;;19.13;10.48;;;1.70;99.90;;;;;;5013939;28;20088;-68
2023/01/25 00:58:42;;;;;;;21.08;11.43;;;1.60;99.90;;;;;;5015248;28;20049;-68
2023/01/25 01:01:09;;;;;;;19.05;10.80;;;2.30;99.90;;;;;;5013982;28;20046;-68
2023/01/25 01:03:35;;;;;;;22.42;10.68;;;1.40;99.90;;;;;;5015145;28;20050;-68
2023/01/25 01:06:03;;;;;;;20.80;11.88;;;1.70;99.90;;;;;;5015033;28;20369;-68
2023/01/25 01:08:29;;;;;;;21.67;12.73;;;1.60;99.90;;;;;;5013760;28;20084;-67
2023/01/25 01:11:04;;;;;;;24.40;13.30;;;2.50;99.90;;;;;;5013870;28;20133;-68
2023/01/25 01:13:29;;;;;;;24.15;13.18;;;1.80;99.90;;;;;;5015006;28;20045;-69
2023/01/25 01:15:56;;;;;;;23.83;12.30;;;1.80;99.90;;;;;;4997552;28;20057;-68
2023/01/25 01:18:22;;;;;;;23.58;12.63;;;1.70;99.90;;;;;;5014391;28;20102;-68
2023/01/25 01:20:52;;;;;;;25.30;13.23;;;1.50;99.90;;;;;;5014860;28;20046;-68
2023/01/25 01:23:18;;;;;;;24.30;12.93;;;2.70;99.90;;;;;;5014800;28;20103;-69
2023/01/25 01:25:44;;;;;;;22.65;12.77;;;1.50;99.90;;;;;;5014751;28;20052;-68
2023/01/25 01:28:11;;;;;;;22.88;12.23;;;1.50;99.90;;;;;;5014729;28;20113;-68
2023/01/25 01:30:38;;;;;;;24.55;12.90;;;2.10;99.90;;;;;;5014589;28;20046;-68
2023/01/25 01:33:04;;;;;;;21.20;11.63;;;1.30;99.90;;;;;;5014582;28;20049;-68
2023/01/25 01:35:30;;;;;;;23.25;12.02;;;2.30;99.90;;;;;;5014249;28;20050;-68
2023/01/25 01:37:56;;;;;;;25.67;12.90;;;2.60;99.90;;;;;;5014241;28;20400;-68
2023/01/25 01:40:23;;;;;;;22.60;12.18;;;1.30;99.90;;;;;;5014468;28;20048;-68
2023/01/25 01:43:06;;;;;;;24.00;12.32;;;2.20;99.90;;;;;;5014542;28;20054;-68
2023/01/25 01:45:50;;;;;;;23.48;11.77;;;2.20;99.90;;;;;;4998002;28;20513;-68
2023/01/25 01:48:28;;;;;;;;;;;1.50;99.90;;;;;;5014806;28;20450;-69
2023/01/25 01:51:04;;;;;;;23.75;12.88;;;1.20;99.90;;;;;;5014854;28;19928;-68
2023/01/25 01:53:31;;;;;;;26.40;14.77;;;1.40;99.90;;;;;;5014889;28;20041;-68
2023/01/25 01:56:01;;;;;;;24.67;13.90;;;2.00;99.90;;;;;;5014238;28;20053;-68
2023/01/25 01:58:28;;;;;;;26.08;13.75;;;1.60;99.90;;;;;;5013079;28;20050;-68
2023/01/25 02:00:54;;;;;;;23.77;13.30;;;2.00;99.90;;;;;;5014254;28;20046;-68
2023/01/25 02:03:21;;;;;;;26.13;14.10;;;1.10;99.90;;;;;;5014731;28;20452;-68
2023/01/25 02:05:53;;;;;;;23.83;13.63;;;1.40;99.90;;;;;;5013186;28;20081;-68
2023/01/25 02:08:19;;;;;;;26.75;13.90;;;1.10;99.90;;;;;;5013518;28;20108;-68
2023/01/25 02:10:47;;;;;;;23.02;12.52;;;1.90;99.90;;;;;;5013944;28;20050;-68
2023/01/25 02:13:13;;;;;;;23.90;14.05;;;1.50;99.90;;;;;;5013923;28;20099;-68
2023/01/25 02:15:46;;;;;;;26.45;13.35;;;1.50;99.90;;;;;;5013906;28;20042;-68
2023/01/25 02:18:11;;;;;;;25.98;13.45;;;1.40;99.90;;;;;;5013760;28;20060;-69
2023/01/25 02:20:41;;;;;;;28.05;14.55;;;1.20;99.90;;;;;;5013924;28;20046;-68
2023/01/25 02:23:20;;;;;;;25.95;13.45;;;1.20;99.90;;;;;;5013936;28;20045;-68
2023/01/25 02:25:46;;;;;;;25.42;13.48;;;1.10;99.90;;;;;;5013990;28;20063;-68
2023/01/25 02:28:21;;;;;;;25.00;13.63;;;2.00;99.90;;;;;;5013940;28;20041;-68
2023/01/25 02:30:47;;;;;;;27.08;14.73;;;1.70;99.90;;;;;;5014470;28;20038;-68
2023/01/25 02:33:13;;;;;;;26.38;13.85;;;1.80;99.90;;;;;;5013737;28;20136;-68
2023/01/25 02:35:44;;;;;;;24.95;13.98;;;1.60;99.90;;;;;;5012563;28;20128;-68
2023/01/25 02:38:14;;;;;;;28.77;14.77;;;1.40;99.90;;;;;;5013693;28;20045;-68
2023/01/25 02:40:54;;;;;;;28.27;14.50;;;2.60;99.90;;;;;;5013413;28;20046;-68
2023/01/25 02:43:22;;;;;;;27.27;14.48;;;1.50;99.90;;;;;;5014218;28;20050;-68
2023/01/25 02:45:54;;;;;;;26.05;13.70;;;1.50;99.90;;;;;;5013556;28;20049;-68
2023/01/25 02:48:19;;;;;;;28.35;14.55;;;2.30;99.90;;;;;;5013645;28;20057;-68
2023/01/25 02:50:45;;;;;;;27.13;14.32;;;1.40;99.90;;;;;;5013229;28;20049;-68
2023/01/25 02:53:11;;;;;;;26.52;14.38;;;1.40;99.90;;;;;;5013548;28;20046;-68
2023/01/25 02:55:36;;;;;;;26.02;14.98;;;1.10;99.90;;;;;;5014062;28;20108;-68
2023/01/25 02:58:02;;;;;;;26.40;14.60;;;2.20;99.90;;;;;;5012599;28;20049;-68
2023/01/25 03:00:28;;;;;;;28.67;14.60;;;1.80;99.90;;;;;;5013800;28;20084;-68
2023/01/25 03:02:53;;;;;;;29.30;14.85;;;2.60;99.90;;;;;;5013196;28;20397;-68
2023/01/25 03:05:19;;;;;;;26.65;14.00;;;1.10;99.90;;;;;;5013699;28;20050;-68
2023/01/25 03:07:45;;;;;;;25.70;13.88;;;1.10;99.90;;;;;;5014023;28;20073;-68
2023/01/25 03:10:10;;;;;;;26.50;13.90;;;1.00;99.90;;;;;;5014018;28;20046;-68
2023/01/25 03:12:36;;;;;;;25.55;13.93;;;1.10;99.90;;;;;;5013536;28;20045;-68
2023/01/25 03:15:02;;;;;;;27.50;13.88;;;0.90;99.90;;;;;;5014307;28;20045;-68
2023/01/25 03:17:30;;;;;;;30.85;14.80;;;0.90;99.90;;;;;;5011832;28;20416;-68
2023/01/25 03:19:55;;;;;;;28.75;14.02;;;1.80;99.90;;;;;;5013146;28;20060;-68
2023/01/25 03:22:21;;;;;;;28.60;15.77;;;1.30;99.90;;;;;;5017891;28;20121;-68
2023/01/25 03:24:47;;;;;;;26.98;14.00;;;0.90;99.90;;;;;;5017290;28;20056;-68
2023/01/25 03:27:17;;;;;;;27.08;13.45;;;1.70;99.90;;;;;;5015699;28;20573;-68
2023/01/25 03:29:44;;;;;;;24.58;13.25;;;1.60;99.90;;;;;;5016871;28;20073;-68
2023/01/25 03:32:10;;;;;;;28.90;14.73;;;1.10;99.90;;;;;;5017493;28;20510;-68
2023/01/25 03:34:36;;;;;;;28.08;13.77;;;1.60;99.90;;;;;;5016909;28;20129;-68
2023/01/25 03:37:02;;;;;;;31.02;16.38;;;1.10;99.90;;;;;;5015642;28;20133;-68
2023/01/25 03:39:27;;;;;;;30.88;16.20;;;1.00;99.90;;;;;;5016829;28;20041;-68
2023/01/25 03:41:53;;;;;;;27.83;15.15;;;1.10;99.90;;;;;;5016737;28;20475;-68
2023/01/25 03:44:19;;;;;;;28.45;14.32;;;1.00;99.90;;;;;;5016378;28;20128;-68
2023/01/25 03:46:45;;;;;;;31.00;16.20;;;0.80;99.90;;;;;;5016310;28;20042;-68
2023/01/25 03:49:11;;;;;;;30.13;14.18;;;0.90;99.90;;;;;;5016414;28;20049;-68
2023/01/25 03:51:37;;;;;;;34.30;16.55;;;0.80;99.90;;;;;;5015517;28;20042;-68
2023/01/25 03:54:03;;;;;;;29.02;15.30;;;1.40;99.90;;;;;;5016474;28;20184;-68
2023/01/25 03:56:29;;;;;;;30.75;15.43;;;1.00;99.90;;;;;;5015299;28;20099;-68
2023/01/25 03:58:55;;;;;;;32.17;16.30;;;1.00;99.90;;;;;;5015358;28;20177;-68
2023/01/25 04:01:21;;;;;;;29.33;16.08;;;1.10;99.90;;;;;;5016368;28;20041;-68
2023/01/25 04:03:46;;;;;;;29.92;15.73;;;1.20;99.90;;;;;;5016310;28;20049;-68
2023/01/25 04:06:12;;;;;;;30.65;16.25;;;1.20;99.90;;;;;;5016235;28;20514;-69
2023/01/25 04:08:38;;;;;;;30.23;15.30;;;1.70;99.90;;;;;;5016138;28;20096;-68
2023/01/25 04:11:06;;;;;;;33.25;16.20;;;1.30;99.90;;;;;;5016134;28;20049;-68
2023/01/25 04:13:35;;;;;;;29.30;15.40;;;1.10;99.90;;;;;;5016340;28;20388;-68
2023/01/25 04:16:08;;;;;;;30.33;15.02;;;1.30;99.90;;;;;;5016220;28;20364;-68
2023/01/25 04:18:34;;;;;;;31.30;16.25;;;1.00;99.90;;;;;;5015746;28;20065;-68
2023/01/25 04:20:59;;;;;;;33.28;15.95;;;1.70;99.90;;;;;;5015231;28;20159;-67
2023/01/25 04:23:26;;;;;;;28.75;14.75;;;1.70;99.90;;;;;;5014676;28;20088;-68
2023/01/25 04:25:56;;;;;;;30.80;15.65;;;1.40;99.90;;;;;;4998171;28;20049;-68
2023/01/25 04:28:22;;;;;;;30.67;15.63;;;1.00;99.90;;;;;;5015804;28;20075;-68
2023/01/25 04:30:48;;;;;;;34.28;17.13;;;1.10;99.90;;;;;;5015212;28;20389;-68
2023/01/25 04:33:14;;;;;;;33.80;17.30;;;1.50;99.90;;;;;;5015684;28;20046;-68
2023/01/25 04:35:40;;;;;;;32.33;16.90;;;2.20;99.90;;;;;;5016195;28;20046;-68
2023/01/25 04:38:06;;;;;;;33.05;18.00;;;1.20;99.90;;;;;;5015647;28;20042;-68
2023/01/25 04:40:32;;;;;;;32.92;16.52;;;1.30;99.90;;;;;;5016163;28;20092;-68
2023/01/25 04:42:57;;;;;;;32.53;17.75;;;1.20;99.90;;;;;;5015608;28;20045;-68
2023/01/25 04:45:24;;;;;;;32.78;17.23;;;2.60;99.90;;;;;;5015471;28;20049;-71
2023/01/25 04:47:56;;;;;;;30.55;15.55;;;1.10;99.90;;;;;;5015445;28;20049;-68
2023/01/25 04:50:22;;;;;;;31.42;16.27;;;2.50;99.90;;;;;;5015672;28;20392;-68
2023/01/25 04:52:48;;;;;;;33.25;16.70;;;1.20;99.90;;;;;;5015706;28;20046;-68
2023/01/25 04:55:14;;;;;;;32.40;17.85;;;1.40;99.90;;;;;;5015339;28;20085;-68
2023/01/25 04:57:39;;;;;;;31.02;16.30;;;1.00;99.90;;;;;;5015534;28;20048;-68
2023/01/25 05:00:06;;;;;;;34.45;17.38;;;1.10;99.90;;;;;;5013924;28;20057;-68
2023/01/25 05:02:31;;;;;;;33.42;17.50;;;0.90;99.90;;;;;;5015074;28;20543;-68
2023/01/25 05:04:57;;;;;;;35.20;18.48;;;0.90;99.90;;;;;;5014852;28;20133;-68
2023/01/25 05:07:23;;;;;;;31.15;17.02;;;1.80;99.90;;;;;;5015306;28;20124;-68
2023/01/25 05:09:49;;;;;;;35.35;17.85;;;1.00;99.90;;;;;;5014664;28;20045;-68
2023/01/25 05:12:14;;;;;;;35.58;18.25;;;1.00;99.90;;;;;;5014599;28;20049;-68
2023/01/25 05:14:40;;;;;;;36.60;17.50;;;1.10;99.90;;;;;;5014007;28;20049;-68
2023/01/25 05:17:06;;;;;;;33.00;16.15;;;0.80;99.90;;;;;;5015388;28;20447;-68
2023/01/25 05:19:33;;;;;;;35.20;17.90;;;0.80;99.90;;;;;;5015099;28;20049;-68
2023/01/25 05:21:59;;;;;;;35.40;18.10;;;1.10;99.90;;;;;;5015369;28;20100;-68
2023/01/25 05:24:29;;;;;;;37.25;17.98;;;0.90;99.90;;;;;;5014768;28;20439;-68
2023/01/25 05:27:06;;;;;;;33.05;17.20;;;1.00;99.90;;;;;;5014733;28;20133;-67
2023/01/25 05:29:36;;;;;;;34.95;17.83;;;1.10;99.90;;;;;;5015021;28;20056;-68
2023/01/25 05:32:09;;;;;;;36.75;18.20;;;0.90;99.90;;;;;;5014681;28;20407;-68
2023/01/25 05:34:35;;;;;;;35.38;18.38;;;0.70;99.90;;;;;;5014628;28;20045;-68
2023/01/25 05:37:02;;;;;;;34.83;18.42;;;0.90;99.90;;;;;;5014257;28;20049;-68
2023/01/25 05:39:27;;;;;;;39.58;19.92;;;0.60;99.90;;;;;;5014572;28;20045;-68
2023/01/25 05:41:53;;;;;;;38.67;19.02;;;0.60;99.90;;;;;;5014403;28;20132;-68
2023/01/25 05:44:19;;;;;;;35.70;18.80;;;1.30;99.90;;;;;;5013784;28;20092;-68
2023/01/25 05:46:45;;;;;;;38.20;19.65;;;0.50;99.90;;;;;;5014315;28;20069;-68
2023/01/25 05:49:11;;;;;;;40.78;20.23;;;0.50;99.90;;;;;;5014334;28;20050;-68
2023/01/25 05:51:39;;;;;;;39.97;20.20;;;1.10;99.90;;;;;;5013122;28;20062;-68
2023/01/25 05:54:06;;;;;;;37.28;18.45;;;1.20;99.90;;;;;;5014792;28;20124;-68
2023/01/25 05:56:33;;;;;;;40.67;19.67;;;0.50;99.90;;;;;;5013909;28;20104;-68
2023/01/25 05:59:01;;;;;;;35.90;18.15;;;0.80;99.90;;;;;;5014158;28;20046;-68
2023/01/25 06:01:28;;;;;;;39.85;19.52;;;0.60;99.90;;;;;;5014147;28;20136;-68
2023/01/25 06:03:54;;;;;;;40.38;19.58;;;0.70;99.90;;;;;;5014643;28;20046;-68
2023/01/25 06:06:20;;;;;;;36.42;18.20;;;0.70;99.90;;;;;;5013093;28;20048;-68
2023/01/25 06:08:47;;;;;;;38.35;19.10;;;0.50;99.90;;;;;;5013531;28;20446;-68
2023/01/25 06:11:16;;;;;;;38.00;19.13;;;0.70;99.90;;;;;;5013967;28;20180;-67
2023/01/25 06:13:41;;;;;;;38.30;19.35;;;0.50;99.90;;;;;;5012989;28;20049;-68
2023/01/25 06:16:08;;;;;;;36.38;19.25;;;0.60;99.90;;;;;;5014634;28;20053;-68
2023/01/25 06:18:34;;;;;;;39.55;19.92;;;1.20;99.90;;;;;;5013695;28;20041;-68
2023/01/25 06:21:01;;;;;;;40.03;20.05;;;1.30;99.90;;;;;;5013931;28;20052;-68
2023/01/25 06:23:27;;;;;;;44.28;19.50;;;1.30;99.90;;;;;;5013887;28;20045;-68
2023/01/25 06:25:57;;;;;;;36.00;18.25;;;0.60;99.90;;;;;;5013829;28;20504;-68
2023/01/25 06:28:23;;;;;;;47.55;20.60;;;0.50;99.90;;;;;;5013886;28;20129;-68
2023/01/25 06:30:49;;;;;;;40.67;19.60;;;0.40;99.90;;;;;;5013013;28;20134;-68
2023/01/25 06:33:14;;;;;;;36.45;18.60;;;2.10;99.90;;;;;;5012631;28;20046;-68
2023/01/25 06:35:41;;;;;;;43.85;21.23;;;1.60;99.90;;;;;;4996160;28;20045;-67
2023/01/25 06:38:07;;;;;;;41.00;20.58;;;1.20;99.90;;;;;;5014014;28;20084;-68
2023/01/25 06:40:32;;;;;;;42.95;20.65;;;0.50;99.90;;;;;;5012591;28;20411;-67
2023/01/25 06:43:11;;;;;;;43.55;21.38;;;0.50;99.90;;;;;;5013743;28;20038;-68
2023/01/25 06:45:37;;;;;;;45.42;23.25;;;0.50;99.90;;;;;;5013580;28;20100;-68
2023/01/25 06:48:03;;;;;;;42.63;22.23;;;1.40;99.90;;;;;;5013850;28;20042;-68
2023/01/25 06:50:29;;;;;;;40.50;21.10;;;1.50;99.90;;;;;;5013596;28;20053;-68
2023/01/25 06:52:55;;;;;;;41.10;21.15;;;0.60;99.90;;;;;;5013652;28;20050;-68
2023/01/25 06:55:21;;;;;;;43.03;19.92;;;0.60;99.90;;;;;;5015910;28;20048;-67
2023/01/25 06:57:48;;;;;;;44.17;21.33;;;1.60;99.90;;;;;;5017541;28;20042;-68
2023/01/25 07:00:15;;;;;;;41.13;19.98;;;0.80;99.90;;;;;;5017512;28;20038;-68
2023/01/25 07:02:41;;;;;;;42.85;19.85;;;0.60;99.90;;;;;;5017458;28;20045;-68
2023/01/25 07:05:07;;;;;;;38.50;19.63;;;0.60;99.90;;;;;;5017452;28;20469;-68
2023/01/25 07:07:33;;;;;;;40.55;20.70;;;0.30;99.90;;;;;;5017430;28;20056;-68
2023/01/25 07:10:00;;;;;;;38.70;18.77;;;1.60;99.90;;;;;;5017864;28;20376;-67
2023/01/25 07:12:28;;;;;;;40.40;20.65;;;0.50;99.90;;;;;;5021184;28;20408;-67
2023/01/25 07:14:54;;;;;;;40.15;20.23;;;0.40;99.90;;;;;;5017330;28;20071;-68
2023/01/25 07:17:19;;;;;;;39.75;19.23;;;0.30;99.90;;;;;;5017659;28;20037;-68
2023/01/25 07:19:45;;;;;;;40.50;20.60;;;1.90;99.90;;;;;;5018073;28;20077;-67
2023/01/25 07:22:11;;;;;;;43.42;20.92;;;1.30;99.90;;;;;;5015700;28;20495;-68
2023/01/25 07:24:37;;;;;;;37.50;18.38;;;0.40;99.90;;;;;;5015972;28;20041;-68
2023/01/25 07:27:03;;;;;;;37.15;17.65;;;1.80;99.90;;;;;;5017108;28;20495;-67
2023/01/25 07:29:29;;;;;;;38.70;18.27;;;0.40;99.90;;;;;;5017811;28;20079;-68
2023/01/25 07:31:54;;;;;;;38.75;19.35;;;0.50;99.90;;;;;;5017039;28;20501;-68
2023/01/25 07:34:20;;;;;;;38.20;19.65;;;0.50;99.90;;;;;;5017824;28;20054;-70
2023/01/25 07:36:46;;;;;;;41.80;19.90;;;1.00;99.90;;;;;;5016917;28;20092;-69
2023/01/25 07:39:12;;;;;;;41.15;20.85;;;1.10;99.90;;;;;;5016827;28;20050;-69
2023/01/25 07:41:39;;;;;;;43.60;20.98;;;0.10;99.90;;;;;;5015660;28;20045;-69
2023/01/25 07:44:05;;;;;;;41.95;21.05;;;1.50;99.90;;;;;;5016615;28;20056;-67
2023/01/25 07:46:31;;;;;;;59.65;29.88;;;0.10;99.90;;;;;;5016383;28;20525;-69
2023/01/25 07:48:57;;;;;;;46.53;22.42;;;0.20;99.90;;;;;;5016318;28;20054;-69
2023/01/25 07:51:28;;;;;;;40.63;20.92;;;-0.10;99.90;;;;;;4998855;28;20546;-67
2023/01/25 07:54:02;;;;;;;43.05;21.27;;;-0.10;99.90;;;;;;5017203;28;20107;-67
2023/01/25 07:56:34;;;;;;;41.20;21.23;;;1.30;99.90;;;;;;5017403;28;20129;-68
2023/01/25 07:59:03;;;;;;;43.35;20.45;;;0.20;99.90;;;;;;5016583;28;20092;-68
2023/01/25 08:01:32;;;;;;;42.97;20.75;;;0.40;99.90;;;;;;5016424;28;20045;-68
2023/01/25 08:03:59;;;;;;;44.45;21.27;;;0.40;99.90;;;;;;5015396;28;20050;-68
2023/01/25 08:06:29;;;;;;;40.45;20.10;;;0.10;99.90;;;;;;5015519;28;20068;-68
2023/01/25 08:08:56;;;;;;;45.13;22.05;;;1.60;99.90;;;;;;5016615;28;20042;-68
2023/01/25 08:11:28;;;;;;;39.00;19.33;;;1.00;99.90;;;;;;5016332;28;20046;-68
2023/01/25 08:13:54;;;;;;;39.63;19.63;;;1.60;99.90;;;;;;5015079;28;20145;-69
2023/01/25 08:16:22;;;;;;;38.80;20.00;;;0.50;99.90;;;;;;5016095;28;20077;-69
2023/01/25 08:18:49;;;;;;;43.65;19.63;;;1.30;99.90;;;;;;5015823;28;20509;-69
2023/01/25 08:21:15;;;;;;;37.67;18.88;;;0.90;99.90;;;;;;5016080;28;20050;-68
2023/01/25 08:23:41;;;;;;;38.53;18.95;;;0.90;99.90;;;;;;5016566;28;20442;-68
2023/01/25 08:26:09;;;;;;;36.20;17.75;;;1.30;99.90;;;;;;5015036;28;20049;-68
2023/01/25 08:28:34;;;;;;;32.92;17.27;;;0.20;99.90;;;;;;5015248;28;20064;-69
2023/01/25 08:31:09;;;;;;;34.90;18.50;;;0.50;99.90;;;;;;5014903;28;20046;-68
2023/01/25 08:33:35;;;;;;;35.35;18.10;;;0.20;99.90;;;;;;5016191;28;20045;-68
2023/01/25 08:36:01;;;;;;;34.55;17.45;;;0.80;99.90;;;;;;5015851;28;20144;-68
2023/01/25 08:38:26;;;;;;;34.80;16.40;;;0.50;99.90;;;;;;5015728;28;20496;-68
2023/01/25 08:40:52;;;;;;;33.67;17.15;;;0.20;99.90;;;;;;5014525;28;20038;-68
2023/01/25 08:43:18;;;;;;;35.97;17.65;;;0.00;99.90;;;;;;5015016;28;20042;-68
2023/01/25 08:45:44;;;;;;;34.92;17.25;;;0.50;99.90;;;;;;5015589;28;20416;-71
2023/01/25 08:48:14;;;;;;;35.65;17.30;;;0.10;99.90;;;;;;5015584;28;20045;-68
2023/01/25 08:50:45;;;;;;;33.53;17.33;;;0.30;99.90;;;;;;5015265;28;20128;-68
2023/01/25 08:53:11;;;;;;;34.95;16.90;;;1.70;99.90;;;;;;5015521;28;20046;-68
2023/01/25 08:55:36;;;;;;;29.90;15.98;;;0.30;99.90;;;;;;5014229;28;20057;-68
2023/01/25 08:58:02;;;;;;;33.25;16.27;;;0.50;99.90;;;;;;5001562;28;20080;-68
2023/01/25 09:00:28;;;;;;;31.67;16.73;;;0.60;99.90;;;;;;5015323;28;20042;-69
2023/01/25 09:02:53;;;;;;;37.60;16.48;;;1.20;99.90;;;;;;5015152;28;20050;-68
2023/01/25 09:05:19;;;;;;;35.03;17.05;;;0.60;99.90;;;;;;5015267;28;20492;-68
2023/01/25 09:07:45;;;;;;;34.22;16.95;;;0.30;99.90;;;;;;5015129;28;20053;-69
2023/01/25 09:10:10;;;;;;;30.98;16.02;;;1.00;99.90;;;;;;5015066;28;20124;-69
2023/01/25 09:12:36;;;;;;;32.85;17.33;;;0.10;99.90;;;;;;5015082;28;20057;-70
2023/01/25 09:15:02;;;;;;;31.67;16.02;;;0.40;99.90;;;;;;5015675;28;20049;-70
2023/01/25 09:17:29;;;;;;;34.40;16.77;;;0.10;99.90;;;;;;5014600;28;20483;-70
2023/01/25 09:19:54;;;;;;;32.47;16.17;;;0.90;99.90;;;;;;5013676;28;20420;-69
2023/01/25 09:22:20;;;;;;;32.53;16.88;;;0.40;99.90;;;;;;5014925;28;20061;-69
2023/01/25 09:24:50;;;;;;;34.83;16.17;;;1.20;99.90;;;;;;5015174;28;20060;-69
2023/01/25 09:27:16;;;;;;;34.55;16.60;;;0.70;99.90;;;;;;5015172;28;20053;-67
2023/01/25 09:29:42;;;;;;;35.15;17.15;;;0.00;99.90;;;;;;5014426;28;20125;-68
2023/01/25 09:32:08;;;;;;;35.45;16.00;;;-0.20;99.90;;;;;;5014659;28;20125;-67
2023/01/25 09:34:33;;;;;;;31.50;15.07;;;-0.10;99.90;;;;;;5014877;28;20085;-67
2023/01/25 09:36:59;;;;;;;32.80;16.60;;;0.10;99.90;;;;;;5013508;28;20053;-67
2023/01/25 09:39:25;;;;;;;33.10;16.60;;;2.30;99.90;;;;;;5013435;28;20042;-67
2023/01/25 09:42:05;;;;;;;35.67;17.67;;;-0.10;99.90;;;;;;5014447;28;20049;-67
2023/01/25 09:44:51;;;;;;;36.50;15.88;;;-0.30;99.90;;;;;;5014784;28;20480;-67
2023/01/25 09:47:26;;;;;;;36.25;17.70;;;0.30;99.90;;;;;;5014663;28;20120;-68
2023/01/25 09:50:10;;;;;;;35.42;17.38;;;-0.20;99.90;;;;;;5014451;28;20042;-68
2023/01/25 09:53:13;;;;;;;31.98;16.40;;;-0.30;99.90;;;;;;5014489;28;20046;-68
2023/01/25 09:55:40;;;;;;;38.28;18.83;;;-0.20;99.90;;;;;;5014329;28;20052;-68
2023/01/25 09:58:13;;;;;;;35.78;17.45;;;-0.10;99.90;;;;;;5013633;28;20053;-68
2023/01/25 10:00:46;;;;;;;34.40;17.20;;;1.20;99.90;;;;;;5014168;28;20053;-68
2023/01/25 10:03:23;;;;;;;38.20;18.75;;;0.70;99.90;;;;;;5014002;28;20054;-68
2023/01/25 10:05:56;;;;;;;38.13;18.20;;;0.60;99.90;;;;;;5014146;28;20518;-68
2023/01/25 10:08:49;;;;;;;36.17;17.67;;;-0.20;99.90;;;;;;5014098;28;20364;-68
2023/01/25 10:11:24;;;;;;;38.22;18.77;;;-0.10;99.90;;;;;;5014489;28;20369;-68
2023/01/25 10:13:50;;;;;;;32.95;17.40;;;-0.20;99.90;;;;;;5014324;28;20491;-68
2023/01/25 10:16:21;;;;;;;40.15;17.90;;;0.50;99.90;;;;;;5012649;28;20568;-68
2023/01/25 10:18:46;;;;;;;35.60;17.90;;;0.10;99.90;;;;;;5013106;28;20058;-68
2023/01/25 10:21:39;;;;;;;37.90;19.02;;;0.80;99.90;;;;;;5012855;28;20161;-68
2023/01/25 10:24:31;;;;;;;38.20;19.27;;;-0.20;99.90;;;;;;4996681;28;20049;-68
2023/01/25 10:27:02;;;;;;;36.78;19.27;;;-0.20;99.90;;;;;;5013925;28;20099;-70
2023/01/25 10:29:31;;;;;;;37.65;17.85;;;0.50;99.90;;;;;;5013309;28;20476;-70
2023/01/25 10:32:18;;;;;;;41.58;20.90;;;-0.20;99.90;;;;;;5013295;28;20080;-69
2023/01/25 10:34:51;;;;;;;38.47;18.70;;;-0.20;99.90;;;;;;5012444;28;20048;-69
2023/01/25 10:37:29;;;;;;;36.58;16.30;;;0.50;99.90;;;;;;5013668;28;20054;-69
2023/01/25 10:40:04;;;;;;;35.58;17.58;;;-0.20;99.90;;;;;;5014218;28;20041;-69
2023/01/25 10:42:45;;;;;;;34.63;17.25;;;0.00;99.90;;;;;;5013701;28;20385;-69
2023/01/25 10:45:15;;;;;;;35.70;17.67;;;0.60;99.90;;;;;;5013641;28;20050;-68
2023/01/25 10:47:46;;;;;;;36.50;18.27;;;0.10;99.90;;;;;;5013873;28;20132;-69
2023/01/25 10:50:37;;;;;;;37.70;19.23;;;1.50;99.90;;;;;;5013125;28;20480;-68
2023/01/25 10:53:03;;;;;;;40.00;19.58;;;-0.10;99.90;;;;;;5014609;28;20145;-68
2023/01/25 10:55:28;;;;;;;39.00;18.50;;;-0.20;99.90;;;;;;5012545;28;20112;-69
2023/01/25 10:57:59;;;;;;;41.83;18.85;;;0.10;99.90;;;;;;5012599;28;20049;-68
2023/01/25 11:00:49;;;;;;;32.55;16.45;;;0.00;99.90;;;;;;5013286;28;20488;-68
2023/01/25 11:03:20;;;;;;;38.67;16.95;;;0.60;99.90;;;;;;5012960;28;20061;-69
2023/01/25 11:05:54;;;;;;;34.45;15.52;;;1.10;99.90;;;;;;5013834;28;20081;-68
2023/01/25 11:08:40;;;;;;;37.85;16.75;;;0.10;99.90;;;;;;5013271;28;20045;-68
2023/01/25 11:11:37;;;;;;;37.65;17.77;;;-0.10;99.90;;;;;;5013816;28;20545;-68
2023/01/25 11:14:25;;;;;;;39.00;18.60;;;-0.20;99.90;;;;;;5012542;28;20042;-68
2023/01/25 11:16:53;;;;;;;38.65;18.83;;;0.00;99.90;;;;;;5015773;28;20097;-68
2023/01/25 11:19:26;;;;;;;37.90;18.25;;;0.00;99.90;;;;;;5015498;28;20526;-70
2023/01/25 11:21:54;;;;;;;35.03;16.83;;;0.70;99.90;;;;;;5012472;28;20107;-69
2023/01/25 11:24:20;;;;;;;40.55;17.70;;;0.90;99.90;;;;;;5013469;28;20383;-69
2023/01/25 11:26:45;;;;;;;36.47;17.60;;;0.10;99.90;;;;;;5013371;28;20047;-69
2023/01/25 11:29:15;;;;;;;38.65;16.77;;;-1.30;99.90;;;;;;5013284;28;20125;-69
2023/01/25 11:31:45;;;;;;;41.72;18.33;;;-0.10;99.90;;;;;;5013628;28;20195;-68
2023/01/25 11:34:16;;;;;;;39.08;17.27;;;-0.20;99.90;;;;;;5013354;28;20454;-67
2023/01/25 11:37:09;;;;;;;35.58;17.25;;;-0.20;99.90;;;;;;5013516;28;20053;-68
2023/01/25 11:39:43;;;;;;;37.30;17.45;;;-0.10;99.90;;;;;;5013340;28;20053;-69
2023/01/25 11:42:21;;;;;;;37.13;17.42;;;0.30;99.90;;;;;;5015609;28;20080;-68
2023/01/25 11:45:15;;;;;;;36.80;16.50;;;-0.10;99.90;;;;;;5016756;28;20054;-68
2023/01/25 11:48:08;;;;;;;39.28;16.75;;;-0.20;99.90;;;;;;4993372;28;20058;-68
2023/01/25 11:50:44;;;;;;;33.30;16.73;;;-0.10;99.90;;;;;;5016619;28;20104;-68
2023/01/25 11:53:43;;;;;;;39.70;18.17;;;-0.20;99.90;;;;;;5016513;28;20131;-68
2023/01/25 11:56:45;;;;;;;37.65;16.70;;;-0.20;99.90;;;;;;5016281;28;20050;-69
2023/01/25 11:59:13;;;;;;;34.83;15.95;;;-0.10;99.90;;;;;;4983036;28;20522;-68
2023/01/25 12:01:51;;;;;;;41.85;17.45;;;2.10;99.90;;;;;;5015984;28;20392;-69
2023/01/25 12:05:10;;;;;;;34.85;16.05;;;0.10;99.90;;;;;;5016469;28;20057;-68
2023/01/25 12:07:57;;;;;;;33.58;15.38;;;-0.10;99.90;;;;;;4955757;29;20093;-68
2023/01/25 12:10:28;;;;;;;34.05;15.00;;;0.10;99.90;;;;;;5011794;28;20516;-69
2023/01/25 12:13:07;;;;;;;34.92;15.98;;;0.00;99.90;;;;;;5016813;28;20092;-69
2023/01/25 12:15:45;;;;;;;35.13;15.40;;;0.10;99.90;;;;;;5015813;28;20418;-69
2023/01/25 12:18:22;;;;;;;35.47;15.80;;;0.10;99.90;;;;;;5015635;28;20099;-69
2023/01/25 12:21:08;;;;;;;34.60;15.60;;;0.10;99.90;;;;;;5016965;28;20049;-68
2023/01/25 12:23:52;;;;;;;37.78;16.52;;;1.10;99.90;;;;;;5002015;28;20112;-68
2023/01/25 12:26:23;;;;;;;;;;;0.10;99.90;;;;;;5016496;28;20504;-69
2023/01/25 12:29:10;;;;;;;40.00;17.73;;;1.00;99.90;;;;;;5016577;28;19925;-68
2023/01/25 12:31:44;;;;;;;37.92;16.85;;;-0.20;99.90;;;;;;5016484;28;20054;-69
2023/01/25 12:34:17;;;;;;;34.72;16.23;;;-0.10;99.90;;;;;;5015855;28;20100;-69
2023/01/25 12:36:48;;;;;;;35.25;16.67;;;0.00;99.90;;;;;;5014714;28;20046;-68
2023/01/25 12:39:26;;;;;;;33.25;15.70;;;0.90;99.90;;;;;;5015723;28;20340;-69
2023/01/25 12:41:56;;;;;;;34.42;16.85;;;0.10;99.90;;;;;;5015774;28;20053;-68
2023/01/25 12:44:35;;;;;;;33.83;16.33;;;0.10;99.90;;;;;;4998388;28;20060;-69
2023/01/25 12:47:22;;;;;;;34.38;15.98;;;0.10;99.90;;;;;;5014591;28;20054;-69
2023/01/25 12:50:15;;;;;;;33.60;14.82;;;0.20;99.90;;;;;;5016395;28;20042;-69